Time;durP1;ratioP1;P1;durP2;ratioP2;P2;SDS_P1;SDS_P2;PMS_P1;PMS_P2;Temp;Humidity;BMP_temperature;BMP_pressure;BME280_temperature;BME280_humidity;BME280_pressure;Samples;Min_cycle;Max_cycle;Signal;HPM_P1;HPM_P2
2022/11/07 00:02:06;;;;;;;9.30;6.07;;;10.70;99.90;;;;;;4997479;28;20135;-71
2022/11/07 00:04:32;;;;;;;12.60;8.23;;;10.70;99.90;;;;;;5013822;28;20107;-71
2022/11/07 00:06:59;;;;;;;12.77;7.25;;;10.70;99.90;;;;;;5013318;28;20119;-71
2022/11/07 00:09:25;;;;;;;10.45;7.05;;;10.80;99.90;;;;;;5013569;28;20042;-71
2022/11/07 00:11:50;;;;;;;9.95;7.05;;;10.70;99.90;;;;;;5013482;28;20566;-71
2022/11/07 00:14:17;;;;;;;11.80;7.32;;;10.80;99.90;;;;;;5029981;28;20054;-71
2022/11/07 00:16:44;;;;;;;11.85;7.13;;;10.80;99.90;;;;;;5029563;28;20491;-71
2022/11/07 00:19:13;;;;;;;11.88;7.20;;;10.90;99.90;;;;;;5013395;28;20046;-71
2022/11/07 00:21:39;;;;;;;10.98;7.07;;;10.90;99.90;;;;;;4997275;28;20077;-71
2022/11/07 00:24:06;;;;;;;12.27;7.22;;;10.90;99.90;;;;;;5029669;28;20052;-70
2022/11/07 00:26:31;;;;;;;10.35;7.43;;;10.90;99.90;;;;;;4964874;28;20060;-71
2022/11/07 00:28:57;;;;;;;13.85;7.30;;;11.00;99.90;;;;;;4996614;28;20453;-73
2022/11/07 00:31:23;;;;;;;8.10;5.40;;;11.00;99.90;;;;;;4980854;28;20050;-71
2022/11/07 00:33:49;;;;;;;10.75;6.40;;;11.00;99.90;;;;;;5012697;28;20062;-72
2022/11/07 00:36:27;;;;;;;9.50;7.10;;;11.00;99.90;;;;;;4996792;28;20411;-71
2022/11/07 00:38:54;;;;;;;11.38;7.30;;;11.00;99.90;;;;;;4996625;28;20085;-72
2022/11/07 00:41:21;;;;;;;13.68;6.40;;;11.10;99.90;;;;;;4996804;28;20085;-71
2022/11/07 00:43:47;;;;;;;11.85;6.03;;;11.20;99.90;;;;;;5029222;28;20046;-71
2022/11/07 00:46:15;;;;;;;11.82;7.07;;;11.20;99.90;;;;;;5012599;28;20530;-72
2022/11/07 00:48:41;;;;;;;13.68;6.95;;;11.20;99.90;;;;;;5029454;28;20506;-71
2022/11/07 00:51:23;;;;;;;13.43;6.47;;;11.40;99.90;;;;;;5012378;28;20037;-71
2022/11/07 00:53:50;;;;;;;10.82;6.40;;;11.30;99.90;;;;;;4982477;28;20482;-71
2022/11/07 00:56:18;;;;;;;9.85;4.78;;;11.30;99.90;;;;;;5012917;28;20053;-72
2022/11/07 00:58:44;;;;;;;7.60;4.78;;;11.30;99.90;;;;;;4996579;28;20203;-71
2022/11/07 01:01:11;;;;;;;11.05;5.30;;;11.40;99.90;;;;;;5012281;28;20558;-71
2022/11/07 01:06:22;;;;;;;10.68;6.28;;;11.30;99.90;;;;;;4998931;28;20057;-71
2022/11/07 01:08:48;;;;;;;7.88;5.32;;;11.40;99.90;;;;;;5012401;28;20046;-74
2022/11/07 01:11:13;;;;;;;5.85;3.42;;;11.20;99.90;;;;;;5012696;28;20050;-71
2022/11/07 01:13:39;;;;;;;8.85;5.30;;;11.40;99.90;;;;;;4996096;28;20097;-72
2022/11/07 01:16:10;;;;;;;11.13;6.57;;;11.50;99.90;;;;;;4996114;28;20046;-71
2022/11/07 01:18:36;;;;;;;10.95;6.03;;;11.40;99.90;;;;;;4996281;28;20076;-71
2022/11/07 01:21:08;;;;;;;9.10;4.47;;;11.50;99.90;;;;;;5012295;28;20050;-71
2022/11/07 01:23:34;;;;;;;11.95;5.53;;;11.50;99.90;;;;;;4996173;28;20046;-71
2022/11/07 01:26:08;;;;;;;12.60;4.50;;;11.50;99.90;;;;;;4995917;28;20077;-71
2022/11/07 01:28:35;;;;;;;8.98;5.10;;;11.50;99.90;;;;;;4996108;28;20049;-71
2022/11/07 01:31:06;;;;;;;9.85;5.43;;;11.50;99.90;;;;;;5028322;28;20046;-71
2022/11/07 01:33:32;;;;;;;11.25;5.35;;;11.50;99.90;;;;;;5028397;28;20062;-71
2022/11/07 01:36:03;;;;;;;8.90;5.40;;;11.50;99.90;;;;;;5012129;28;20482;-71
2022/11/07 01:38:29;;;;;;;10.25;5.32;;;11.50;99.90;;;;;;5028838;28;20053;-71
2022/11/07 01:43:49;;;;;;;11.75;5.80;;;11.50;99.90;;;;;;5035323;28;20052;-71
2022/11/07 01:46:16;;;;;;;11.93;4.82;;;11.60;99.90;;;;;;5035153;28;20050;-71
2022/11/07 01:48:49;;;;;;;9.80;4.80;;;11.60;99.90;;;;;;5035183;28;20052;-71
2022/11/07 01:51:16;;;;;;;11.27;5.13;;;11.60;99.90;;;;;;5035026;28;20060;-71
2022/11/07 01:53:41;;;;;;;12.45;4.82;;;11.60;99.90;;;;;;5018975;28;20049;-71
2022/11/07 01:56:13;;;;;;;11.15;5.38;;;11.70;99.90;;;;;;5035009;28;20045;-72
2022/11/07 01:58:40;;;;;;;11.32;5.88;;;11.70;99.90;;;;;;5038046;28;20049;-71
2022/11/07 02:01:06;;;;;;;11.60;4.45;;;11.70;99.90;;;;;;5022807;28;20049;-72
2022/11/07 02:03:32;;;;;;;8.45;5.15;;;11.70;99.90;;;;;;5006289;28;20088;-71
2022/11/07 02:06:02;;;;;;;10.32;4.72;;;11.70;99.90;;;;;;5038842;28;20504;-72
2022/11/07 02:08:31;;;;;;;15.02;5.50;;;11.70;99.90;;;;;;5038992;28;20049;-72
2022/11/07 02:10:59;;;;;;;7.80;4.47;;;11.60;99.90;;;;;;5038584;28;20052;-74
2022/11/07 02:13:30;;;;;;;11.27;4.35;;;11.70;99.90;;;;;;5038949;28;20052;-71
2022/11/07 02:16:00;;;;;;;12.60;5.43;;;11.60;99.90;;;;;;5022127;28;20406;-71
2022/11/07 02:18:27;;;;;;;7.22;4.03;;;11.60;99.90;;;;;;5038981;28;20049;-71
2022/11/07 02:20:58;;;;;;;9.68;3.63;;;11.60;99.90;;;;;;5022299;28;20052;-71
2022/11/07 02:23:43;;;;;;;8.68;5.50;;;11.60;99.90;;;;;;5038846;28;20051;-71
2022/11/07 02:26:08;;;;;;;8.25;4.47;;;11.60;99.90;;;;;;5038566;28;20481;-71
2022/11/07 02:28:37;;;;;;;11.80;5.05;;;11.60;99.90;;;;;;5021918;28;20446;-71
2022/11/07 02:31:03;;;;;;;13.45;5.20;;;11.60;99.90;;;;;;5038043;28;20049;-71
2022/11/07 02:33:29;;;;;;;14.27;5.35;;;11.60;99.90;;;;;;5005350;28;20053;-71
2022/11/07 02:35:55;;;;;;;11.57;5.07;;;11.60;99.90;;;;;;5038524;28;20045;-71
2022/11/07 02:38:34;;;;;;;12.60;5.72;;;11.60;99.90;;;;;;5038224;28;20056;-71
2022/11/07 02:41:04;;;;;;;9.05;4.72;;;11.60;99.90;;;;;;5038470;28;20052;-71
2022/11/07 02:43:31;;;;;;;11.32;4.70;;;11.60;99.90;;;;;;5038456;28;20056;-71
2022/11/07 02:46:01;;;;;;;9.63;4.65;;;11.60;99.90;;;;;;5038137;28;20424;-70
2022/11/07 02:48:31;;;;;;;11.95;5.88;;;11.50;99.90;;;;;;5021702;28;20041;-69
2022/11/07 02:50:58;;;;;;;16.23;5.93;;;11.50;99.90;;;;;;5021193;28;20475;-69
2022/11/07 02:53:24;;;;;;;7.22;4.90;;;11.40;99.90;;;;;;5038064;28;20057;-69
2022/11/07 02:55:49;;;;;;;11.27;5.60;;;11.40;99.90;;;;;;5038178;28;20152;-69
2022/11/07 02:58:15;;;;;;;11.93;6.40;;;11.40;99.90;;;;;;5037721;28;20209;-69
2022/11/07 03:00:41;;;;;;;8.60;5.13;;;11.40;99.90;;;;;;5021658;28;20041;-69
2022/11/07 03:03:07;;;;;;;12.13;6.72;;;11.40;99.90;;;;;;5037605;28;20056;-69
2022/11/07 03:05:32;;;;;;;12.70;5.32;;;11.40;99.90;;;;;;5038029;28;20128;-69
2022/11/07 03:07:58;;;;;;;15.32;6.40;;;11.40;99.90;;;;;;5037597;28;20473;-70
2022/11/07 03:10:24;;;;;;;17.05;6.47;;;11.40;99.90;;;;;;5037498;28;20048;-70
2022/11/07 03:12:49;;;;;;;11.40;5.75;;;11.40;99.90;;;;;;5037884;28;20048;-70
2022/11/07 03:15:15;;;;;;;9.15;5.25;;;11.40;99.90;;;;;;5037454;28;20049;-70
2022/11/07 03:17:41;;;;;;;18.00;5.97;;;11.40;99.90;;;;;;5037359;28;20068;-70
2022/11/07 03:20:08;;;;;;;11.75;4.32;;;11.50;99.90;;;;;;5038124;28;20041;-73
2022/11/07 03:22:34;;;;;;;15.70;6.93;;;11.50;99.90;;;;;;5021265;28;20045;-69
2022/11/07 03:24:59;;;;;;;14.23;5.53;;;11.50;99.90;;;;;;5037609;28;20044;-69
2022/11/07 03:27:25;;;;;;;11.40;5.45;;;11.50;99.90;;;;;;5037436;28;20424;-69
2022/11/07 03:29:51;;;;;;;14.30;4.85;;;11.50;99.90;;;;;;5037333;28;20128;-69
2022/11/07 03:32:17;;;;;;;12.50;5.63;;;11.40;99.90;;;;;;5040336;28;20088;-69
2022/11/07 03:34:42;;;;;;;11.27;5.18;;;11.40;99.90;;;;;;5040604;28;20515;-71
2022/11/07 03:37:08;;;;;;;10.27;5.47;;;11.40;99.90;;;;;;5073827;28;20041;-70
2022/11/07 03:39:34;;;;;;;11.73;4.93;;;11.30;99.90;;;;;;5040363;28;20081;-70
2022/11/07 03:41:59;;;;;;;11.48;5.60;;;11.20;99.90;;;;;;5056965;28;20439;-71
2022/11/07 03:44:25;;;;;;;12.75;5.65;;;11.20;99.90;;;;;;5056722;28;20051;-70
2022/11/07 03:46:51;;;;;;;9.77;4.60;;;11.20;99.90;;;;;;5056767;28;20048;-70
2022/11/07 03:49:16;;;;;;;10.88;4.63;;;11.20;99.90;;;;;;5056927;28;20047;-70
2022/11/07 03:51:42;;;;;;;14.48;6.00;;;11.20;99.90;;;;;;5057030;28;20457;-70
2022/11/07 03:54:07;;;;;;;11.95;5.68;;;11.30;99.90;;;;;;5057090;28;20040;-70
2022/11/07 03:56:33;;;;;;;9.32;5.22;;;11.30;99.90;;;;;;5056733;28;20036;-70
2022/11/07 03:58:59;;;;;;;12.30;4.57;;;11.40;99.90;;;;;;5056920;28;20058;-70
2022/11/07 04:01:24;;;;;;;10.88;4.85;;;11.30;99.90;;;;;;5056637;28;20040;-70
2022/11/07 04:03:50;;;;;;;9.18;4.63;;;11.30;99.90;;;;;;5056871;28;20057;-70
2022/11/07 04:06:16;;;;;;;11.40;5.03;;;11.20;99.90;;;;;;5056621;28;20448;-72
2022/11/07 04:08:41;;;;;;;16.10;5.68;;;11.30;99.90;;;;;;5056762;28;20397;-70
2022/11/07 04:17:17;;;;;;;12.32;5.00;;;11.30;99.90;;;;;;5056308;28;20044;-70
2022/11/07 04:19:21;;;;;;;14.27;5.43;;;11.40;99.90;;;;;;5056398;28;20474;-70
2022/11/07 04:21:47;;;;;;;14.68;5.78;;;11.40;99.90;;;;;;5039172;28;20132;-71
2022/11/07 04:24:13;;;;;;;10.25;5.03;;;11.40;99.90;;;;;;5056414;28;20393;-70
2022/11/07 04:29:22;;;;;;;14.32;5.05;;;11.30;99.90;;;;;;5055895;28;20099;-70
2022/11/07 04:31:48;;;;;;;15.95;6.03;;;11.30;99.90;;;;;;5056291;28;20048;-70
2022/11/07 04:34:14;;;;;;;17.90;5.80;;;11.30;99.90;;;;;;5039021;28;20430;-70
2022/11/07 04:36:39;;;;;;;13.88;5.15;;;11.20;99.90;;;;;;5056009;28;20088;-71
2022/11/07 04:39:05;;;;;;;9.35;4.47;;;11.20;99.90;;;;;;4706904;28;10000284;-71
2022/11/07 04:41:30;;;;;;;13.95;5.55;;;11.30;99.90;;;;;;5033882;28;20051;-71
2022/11/07 04:43:56;;;;;;;12.07;4.80;;;11.20;99.90;;;;;;5032608;28;20552;-71
2022/11/07 04:46:23;;;;;;;14.05;5.15;;;11.30;99.90;;;;;;5049749;28;20045;-71
2022/11/07 04:48:49;;;;;;;9.52;4.88;;;11.30;99.90;;;;;;5050438;28;20401;-71
2022/11/07 04:51:19;;;;;;;13.25;5.90;;;11.20;99.90;;;;;;5049545;28;20637;-70
2022/11/07 04:53:44;;;;;;;7.15;3.80;;;11.20;99.90;;;;;;5050108;28;20087;-71
2022/11/07 04:56:10;;;;;;;13.48;5.25;;;11.20;99.90;;;;;;5050301;28;20138;-71
2022/11/07 04:58:36;;;;;;;13.00;4.82;;;11.20;99.90;;;;;;5049753;28;20048;-71
2022/11/07 05:01:02;;;;;;;13.82;5.50;;;11.10;99.90;;;;;;5000782;28;20593;-71
2022/11/07 05:03:27;;;;;;;11.68;5.93;;;11.10;99.90;;;;;;5033006;28;20114;-71
2022/11/07 05:05:53;;;;;;;10.00;4.03;;;11.10;99.90;;;;;;5033366;28;20473;-71
2022/11/07 05:08:19;;;;;;;16.05;6.15;;;11.20;99.90;;;;;;5050084;28;20088;-71
2022/11/07 05:10:44;;;;;;;11.93;5.85;;;11.20;99.90;;;;;;5016648;28;20041;-71
2022/11/07 05:13:10;;;;;;;18.67;5.57;;;11.20;99.90;;;;;;5049984;28;20044;-71
2022/11/07 05:15:36;;;;;;;12.68;5.78;;;11.20;99.90;;;;;;5017951;28;20125;-70
2022/11/07 05:18:02;;;;;;;9.70;4.65;;;11.30;99.90;;;;;;4997245;28;20041;-71
2022/11/07 05:20:33;;;;;;;16.83;5.93;;;11.30;99.90;;;;;;5029604;28;20393;-71
2022/11/07 05:23:11;;;;;;;16.02;5.70;;;11.40;99.90;;;;;;5013245;28;20045;-72
2022/11/07 05:25:47;;;;;;;10.95;5.28;;;11.40;99.90;;;;;;4998164;28;20041;-70
2022/11/07 05:28:21;;;;;;;11.45;5.15;;;11.40;99.90;;;;;;5013099;28;20107;-71
2022/11/07 05:30:47;;;;;;;11.75;5.65;;;11.40;99.90;;;;;;5036490;28;20044;-71
2022/11/07 05:33:16;;;;;;;17.90;6.32;;;11.50;99.90;;;;;;5035876;28;20071;-70
2022/11/07 05:35:42;;;;;;;19.08;7.05;;;11.50;99.90;;;;;;5052779;28;20152;-71
2022/11/07 05:38:09;;;;;;;17.25;5.82;;;11.50;99.90;;;;;;5046233;28;20044;-70
2022/11/07 05:40:36;;;;;;;16.52;5.93;;;11.40;99.90;;;;;;5032689;28;20492;-69
2022/11/07 05:43:05;;;;;;;13.90;5.55;;;11.40;99.90;;;;;;5016458;28;20088;-69
2022/11/07 05:45:32;;;;;;;13.60;5.63;;;11.40;99.90;;;;;;5032716;28;20055;-69
2022/11/07 05:48:03;;;;;;;17.10;5.57;;;11.40;99.90;;;;;;5033000;28;20742;-70
2022/11/07 05:50:29;;;;;;;15.23;5.55;;;11.40;99.90;;;;;;5032356;28;20063;-70
2022/11/07 05:52:55;;;;;;;12.32;4.75;;;11.40;99.90;;;;;;5032744;28;20045;-70
2022/11/07 05:55:22;;;;;;;16.00;5.90;;;11.40;99.90;;;;;;5032774;28;20115;-70
2022/11/07 05:57:48;;;;;;;14.32;5.90;;;11.40;99.90;;;;;;5032642;28;20120;-69
2022/11/07 06:00:14;;;;;;;16.23;6.30;;;11.40;99.90;;;;;;5016148;28;20175;-69
2022/11/07 06:02:40;;;;;;;14.50;6.45;;;11.40;99.90;;;;;;4999473;28;20107;-70
2022/11/07 06:05:06;;;;;;;18.05;5.95;;;11.40;99.90;;;;;;5050411;28;20049;-70
2022/11/07 06:07:36;;;;;;;13.90;5.57;;;11.40;99.90;;;;;;5032500;28;20091;-70
2022/11/07 06:10:04;;;;;;;10.77;5.13;;;11.40;99.90;;;;;;5016066;28;20136;-70
2022/11/07 06:12:29;;;;;;;16.23;6.50;;;11.40;99.90;;;;;;5032675;28;20053;-70
2022/11/07 06:14:55;;;;;;;15.20;5.65;;;11.40;99.90;;;;;;5015678;28;20055;-70
2022/11/07 06:17:21;;;;;;;10.68;5.35;;;11.40;99.90;;;;;;5032686;28;20075;-69
2022/11/07 06:19:46;;;;;;;11.95;5.60;;;11.40;99.90;;;;;;5032223;28;20494;-70
2022/11/07 06:22:12;;;;;;;10.65;6.63;;;11.40;99.90;;;;;;4999766;28;20088;-71
2022/11/07 06:24:38;;;;;;;11.75;6.50;;;11.40;99.90;;;;;;5016055;28;20468;-70
2022/11/07 06:27:03;;;;;;;14.02;6.15;;;11.40;99.90;;;;;;5032648;28;20098;-70
2022/11/07 06:29:29;;;;;;;11.65;5.93;;;11.40;99.90;;;;;;5052167;28;20037;-70
2022/11/07 06:31:55;;;;;;;13.57;6.75;;;11.40;99.90;;;;;;5052224;28;20064;-70
2022/11/07 06:34:20;;;;;;;11.10;6.30;;;11.50;99.90;;;;;;5051966;28;20450;-70
2022/11/07 06:36:50;;;;;;;13.40;5.60;;;11.40;99.90;;;;;;5035880;28;20139;-70
2022/11/07 06:39:16;;;;;;;16.50;6.63;;;11.40;99.90;;;;;;5037874;28;20083;-71
2022/11/07 06:41:42;;;;;;;16.33;5.88;;;11.40;99.90;;;;;;5037657;28;20532;-70
2022/11/07 06:44:08;;;;;;;13.52;5.88;;;11.40;99.90;;;;;;5055659;28;20102;-70
2022/11/07 06:46:33;;;;;;;15.48;6.50;;;11.40;99.90;;;;;;5058325;28;20036;-70
2022/11/07 06:48:59;;;;;;;14.60;6.03;;;11.40;99.90;;;;;;5041566;28;20554;-70
2022/11/07 06:51:24;;;;;;;13.88;5.18;;;11.40;99.90;;;;;;5041385;28;20135;-70
2022/11/07 06:53:50;;;;;;;11.00;6.22;;;11.40;99.90;;;;;;5041328;28;20045;-70
2022/11/07 06:56:16;;;;;;;16.23;6.35;;;11.30;99.90;;;;;;5058222;28;20041;-70
2022/11/07 06:58:42;;;;;;;11.23;6.25;;;11.30;99.90;;;;;;5041316;28;20048;-70
2022/11/07 07:01:12;;;;;;;12.98;6.03;;;11.30;99.90;;;;;;5057739;28;20485;-70
2022/11/07 07:03:39;;;;;;;11.30;5.68;;;11.30;99.90;;;;;;5057975;28;20051;-70
2022/11/07 07:06:08;;;;;;;15.23;5.78;;;11.30;99.90;;;;;;5057754;28;20178;-70
2022/11/07 07:08:34;;;;;;;11.20;5.15;;;11.30;99.90;;;;;;5041325;28;20044;-70
2022/11/07 07:11:14;;;;;;;10.48;6.00;;;11.30;99.90;;;;;;5057338;28;20093;-71
2022/11/07 07:13:40;;;;;;;7.82;4.00;;;11.30;99.90;;;;;;5057791;28;20049;-70
2022/11/07 07:16:06;;;;;;;13.50;6.05;;;11.40;99.90;;;;;;5075359;28;20059;-69
2022/11/07 07:18:33;;;;;;;13.07;6.00;;;11.40;99.90;;;;;;5041126;28;20496;-69
2022/11/07 07:21:07;;;;;;;11.75;6.05;;;11.30;99.90;;;;;;5057531;28;20094;-69
2022/11/07 07:23:33;;;;;;;13.85;5.85;;;11.40;99.90;;;;;;5041080;28;20552;-69
2022/11/07 07:26:01;;;;;;;16.33;6.25;;;11.40;99.90;;;;;;5057415;28;20040;-69
2022/11/07 07:28:26;;;;;;;12.00;4.28;;;11.30;99.90;;;;;;5040723;28;20056;-69
2022/11/07 07:30:52;;;;;;;17.25;6.47;;;11.30;99.90;;;;;;5073708;28;20040;-69
2022/11/07 07:33:19;;;;;;;19.98;7.50;;;11.40;99.90;;;;;;5053692;28;20072;-69
2022/11/07 07:35:45;;;;;;;17.08;6.55;;;11.30;99.90;;;;;;5037397;28;20091;-69
2022/11/07 07:38:11;;;;;;;17.48;7.45;;;11.30;99.90;;;;;;5037318;28;20096;-69
2022/11/07 07:40:36;;;;;;;12.90;7.25;;;11.30;99.90;;;;;;5020996;28;20048;-69
2022/11/07 07:43:02;;;;;;;24.23;6.95;;;11.30;99.90;;;;;;5020754;28;20184;-69
2022/11/07 07:45:28;;;;;;;20.35;8.07;;;11.40;99.90;;;;;;5020841;28;20478;-69
2022/11/07 07:48:00;;;;;;;14.90;7.65;;;11.40;99.90;;;;;;5020509;28;20559;-69
2022/11/07 07:50:26;;;;;;;18.88;8.15;;;11.40;99.90;;;;;;5020636;28;20055;-70
2022/11/07 07:52:56;;;;;;;17.65;7.75;;;11.40;99.90;;;;;;5004195;28;20437;-69
2022/11/07 07:55:22;;;;;;;15.80;7.38;;;11.40;99.90;;;;;;5019656;28;20470;-69
2022/11/07 07:57:48;;;;;;;22.45;7.85;;;11.40;99.90;;;;;;5037101;28;20057;-69
2022/11/07 08:00:14;;;;;;;17.08;8.18;;;11.50;99.90;;;;;;5036838;28;20418;-69
2022/11/07 08:02:42;;;;;;;18.17;8.60;;;11.50;99.90;;;;;;5020571;28;20041;-69
2022/11/07 08:05:13;;;;;;;15.77;8.43;;;11.50;99.90;;;;;;5020195;28;20070;-69
2022/11/07 08:07:49;;;;;;;20.98;8.65;;;11.50;99.90;;;;;;5037095;28;20485;-69
2022/11/07 08:10:16;;;;;;;17.27;7.28;;;11.50;99.90;;;;;;5036471;28;20049;-69
2022/11/07 08:12:44;;;;;;;24.55;8.65;;;11.70;99.90;;;;;;5020203;28;20044;-69
2022/11/07 08:15:11;;;;;;;20.98;7.47;;;11.60;99.90;;;;;;5036467;28;20048;-69
2022/11/07 08:17:37;;;;;;;23.73;8.80;;;11.60;99.90;;;;;;5020112;28;20052;-69
2022/11/07 08:20:03;;;;;;;19.67;7.75;;;11.60;99.90;;;;;;5020096;28;20115;-69
2022/11/07 08:22:29;;;;;;;18.65;7.43;;;11.60;99.90;;;;;;5003871;28;20059;-69
2022/11/07 08:24:54;;;;;;;18.20;7.10;;;11.70;99.90;;;;;;5053793;28;20393;-68
2022/11/07 08:27:20;;;;;;;19.33;6.18;;;11.60;99.90;;;;;;5020080;28;20051;-69
2022/11/07 08:29:46;;;;;;;22.33;7.78;;;11.70;99.90;;;;;;5019866;28;20527;-71
2022/11/07 08:32:11;;;;;;;21.67;8.07;;;11.70;99.90;;;;;;5037325;28;20048;-69
2022/11/07 08:34:37;;;;;;;22.33;7.68;;;11.70;99.90;;;;;;5039770;28;20047;-70
2022/11/07 08:37:03;;;;;;;16.55;7.25;;;11.70;99.90;;;;;;5039370;28;20044;-70
2022/11/07 08:39:29;;;;;;;20.85;7.40;;;11.70;99.90;;;;;;5055906;28;20044;-69
2022/11/07 08:41:55;;;;;;;17.88;7.53;;;11.70;99.90;;;;;;5056071;28;20048;-71
2022/11/07 08:44:20;;;;;;;16.45;6.85;;;11.80;99.90;;;;;;5056099;28;20047;-69
2022/11/07 08:46:46;;;;;;;21.30;8.00;;;11.80;99.90;;;;;;5056058;28;20041;-70
2022/11/07 08:49:12;;;;;;;19.23;7.15;;;11.80;99.90;;;;;;5073312;28;20052;-69
2022/11/07 08:51:38;;;;;;;18.48;7.65;;;11.80;99.90;;;;;;5055993;28;20051;-69
2022/11/07 08:54:03;;;;;;;21.13;7.30;;;11.90;99.90;;;;;;5072973;28;20044;-68
2022/11/07 08:56:29;;;;;;;20.98;7.50;;;11.90;99.90;;;;;;5039120;28;20132;-69
2022/11/07 08:58:55;;;;;;;20.00;6.95;;;11.90;99.90;;;;;;5055963;28;20048;-69
2022/11/07 09:01:21;;;;;;;25.20;7.63;;;12.00;99.90;;;;;;5038946;28;20178;-68
2022/11/07 09:03:46;;;;;;;16.45;6.72;;;12.00;99.90;;;;;;5038976;28;20615;-69
2022/11/07 09:06:12;;;;;;;21.38;6.75;;;12.00;99.90;;;;;;5055299;28;20090;-69
2022/11/07 09:08:39;;;;;;;15.52;6.72;;;12.00;99.90;;;;;;5038927;28;20406;-69
2022/11/07 09:11:05;;;;;;;18.48;6.60;;;12.00;99.90;;;;;;5038605;28;20133;-68
2022/11/07 09:13:32;;;;;;;16.20;5.80;;;12.10;99.90;;;;;;5055617;28;20044;-68
2022/11/07 09:16:00;;;;;;;15.48;6.45;;;12.10;99.90;;;;;;5055580;28;20040;-69
2022/11/07 09:18:27;;;;;;;15.63;5.72;;;12.10;99.90;;;;;;5038920;28;20435;-69
2022/11/07 09:20:53;;;;;;;15.93;6.38;;;12.20;99.90;;;;;;5038670;28;20392;-69
2022/11/07 09:23:19;;;;;;;22.13;5.85;;;12.20;99.90;;;;;;5055242;28;20138;-69
2022/11/07 09:25:45;;;;;;;15.82;5.68;;;12.30;99.90;;;;;;5055450;28;20056;-69
2022/11/07 09:28:12;;;;;;;15.10;5.22;;;12.30;99.90;;;;;;5055174;28;20047;-70
2022/11/07 09:30:54;;;;;;;17.08;6.40;;;12.30;99.90;;;;;;5055134;28;20051;-70
2022/11/07 09:33:20;;;;;;;20.65;6.15;;;12.40;99.90;;;;;;5051403;28;20107;-70
2022/11/07 09:35:47;;;;;;;20.05;6.80;;;12.40;99.90;;;;;;5052042;28;20052;-69
2022/11/07 09:38:16;;;;;;;12.88;5.25;;;12.40;99.90;;;;;;5034851;28;20391;-69
2022/11/07 09:41:02;;;;;;;16.63;5.57;;;12.50;99.90;;;;;;5052034;28;20055;-70
2022/11/07 09:43:34;;;;;;;15.93;6.10;;;12.50;99.90;;;;;;5051822;28;20118;-69
2022/11/07 09:46:29;;;;;;;16.33;5.40;;;12.50;99.90;;;;;;5035138;28;20044;-69
2022/11/07 09:49:28;;;;;;;13.05;5.05;;;12.50;99.90;;;;;;5051910;28;20508;-69
2022/11/07 09:52:13;;;;;;;14.05;4.88;;;12.50;99.90;;;;;;5051784;28;20045;-69
2022/11/07 09:54:44;;;;;;;13.50;5.00;;;12.50;99.90;;;;;;5051978;28;20044;-69
2022/11/07 09:57:17;;;;;;;13.95;4.97;;;12.60;99.90;;;;;;5035161;28;20053;-69
2022/11/07 09:59:45;;;;;;;12.35;4.72;;;12.60;99.90;;;;;;5051790;28;20059;-69
2022/11/07 10:02:17;;;;;;;9.40;4.32;;;12.60;99.90;;;;;;5051539;28;20115;-70
2022/11/07 10:04:44;;;;;;;14.43;5.05;;;12.60;99.90;;;;;;5035181;28;20482;-70
2022/11/07 10:07:53;;;;;;;10.52;4.72;;;12.60;99.90;;;;;;5051243;28;20429;-70
2022/11/07 10:10:31;;;;;;;15.20;5.05;;;12.70;99.90;;;;;;5050244;28;20144;-70
2022/11/07 10:13:30;;;;;;;15.30;4.88;;;12.60;99.90;;;;;;5051781;28;20378;-70
2022/11/07 10:16:17;;;;;;;14.48;4.65;;;12.70;99.90;;;;;;5035997;28;20063;-69
2022/11/07 10:18:48;;;;;;;12.70;5.22;;;12.70;99.90;;;;;;5036169;28;20488;-69
2022/11/07 10:21:17;;;;;;;;;;;12.70;99.90;;;;;;5055762;28;20107;-70
2022/11/07 10:23:57;;;;;;;13.18;3.95;;;12.70;99.90;;;;;;5072177;28;20011;-69
2022/11/07 10:26:26;;;;;;;12.93;5.57;;;12.70;99.90;;;;;;5038695;28;20465;-70
2022/11/07 10:29:08;;;;;;;17.60;5.13;;;12.70;99.90;;;;;;5038548;28;20458;-70
2022/11/07 10:31:42;;;;;;;9.95;3.50;;;12.80;99.90;;;;;;5023604;28;20046;-69
2022/11/07 10:34:36;;;;;;;14.40;4.88;;;13.00;99.90;;;;;;5050104;28;20078;-70
2022/11/07 10:37:03;;;;;;;13.32;4.75;;;12.80;99.90;;;;;;5053559;28;20049;-70
2022/11/07 10:39:30;;;;;;;13.32;4.25;;;12.80;99.90;;;;;;5038340;28;20061;-71
2022/11/07 10:42:07;;;;;;;10.43;3.90;;;12.80;99.90;;;;;;4816491;28;10001005;-70
2022/11/07 10:44:34;;;;;;;19.10;5.38;;;12.90;99.90;;;;;;5051383;28;20256;-71
2022/11/07 10:47:02;;;;;;;17.08;5.22;;;12.90;99.90;;;;;;5055749;28;20055;-71
2022/11/07 10:49:30;;;;;;;10.65;3.58;;;12.90;99.90;;;;;;5038844;28;20055;-70
2022/11/07 10:52:17;;;;;;;13.43;4.75;;;12.90;99.90;;;;;;5055517;28;20584;-70
2022/11/07 10:54:43;;;;;;;18.27;5.43;;;13.00;99.90;;;;;;5054995;28;20071;-70
2022/11/07 10:57:17;;;;;;;11.63;5.20;;;13.10;99.90;;;;;;5055425;28;20079;-71
2022/11/07 10:59:52;;;;;;;17.10;5.90;;;13.20;99.90;;;;;;5038726;28;20048;-70
2022/11/07 11:02:31;;;;;;;16.00;5.22;;;13.20;99.90;;;;;;5038437;28;20056;-71
2022/11/07 11:05:01;;;;;;;15.18;6.53;;;13.20;99.90;;;;;;5054889;28;20059;-71
2022/11/07 11:07:38;;;;;;;24.73;10.07;;;13.20;99.90;;;;;;5055243;28;20102;-71
2022/11/07 11:10:27;;;;;;;24.52;7.95;;;13.20;99.90;;;;;;5015982;28;20537;-71
2022/11/07 11:12:53;;;;;;;22.45;6.88;;;13.20;99.90;;;;;;5036996;28;20132;-70
2022/11/07 11:15:24;;;;;;;22.27;8.60;;;13.20;99.90;;;;;;5050300;28;20128;-70
2022/11/07 11:18:01;;;;;;;22.07;8.40;;;13.30;99.90;;;;;;5034717;28;20102;-71
2022/11/07 11:20:54;;;;;;;23.88;8.00;;;13.30;99.90;;;;;;5034409;28;20098;-72
2022/11/07 11:23:23;;;;;;;17.35;6.10;;;13.30;99.90;;;;;;5029169;28;20064;-70
2022/11/07 11:25:51;;;;;;;21.63;6.75;;;13.30;99.90;;;;;;5037649;28;20041;-70
2022/11/07 11:28:26;;;;;;;16.85;5.90;;;13.30;99.90;;;;;;5020958;28;20044;-73
2022/11/07 11:31:33;;;;;;;17.30;4.80;;;13.30;99.90;;;;;;5020639;28;20080;-71
2022/11/07 11:34:33;;;;;;;14.27;4.95;;;13.30;99.90;;;;;;5019108;28;20053;-71
2022/11/07 11:37:17;;;;;;;14.98;4.70;;;13.30;99.90;;;;;;5037491;28;20044;-70
2022/11/07 11:39:44;;;;;;;14.10;4.40;;;13.40;99.90;;;;;;5037332;28;20183;-70
2022/11/07 11:42:48;;;;;;;11.80;4.57;;;13.40;99.90;;;;;;5020899;28;20056;-70
2022/11/07 11:45:14;;;;;;;11.80;4.57;;;13.50;99.90;;;;;;5021520;28;20053;-71
2022/11/07 11:47:45;;;;;;;24.95;6.70;;;13.50;99.90;;;;;;5020664;28;20545;-70
2022/11/07 11:50:26;;;;;;;19.40;6.35;;;13.60;99.90;;;;;;5037240;28;20398;-70
2022/11/07 11:52:52;;;;;;;16.23;6.22;;;13.60;99.90;;;;;;5020524;28;20461;-71
2022/11/07 11:55:22;;;;;;;17.73;5.78;;;13.60;99.90;;;;;;5020599;28;20084;-70
2022/11/07 11:58:00;;;;;;;16.60;6.37;;;13.70;99.90;;;;;;5036896;28;20095;-70
2022/11/07 12:00:25;;;;;;;19.88;7.45;;;13.70;99.90;;;;;;5036782;28;20345;-70
2022/11/07 12:03:04;;;;;;;17.38;6.35;;;13.70;99.90;;;;;;5036694;28;20053;-70
2022/11/07 12:05:32;;;;;;;15.55;5.85;;;13.70;99.90;;;;;;5036559;28;20448;-70
2022/11/07 12:08:16;;;;;;;14.02;6.15;;;13.70;99.90;;;;;;5037051;28;20115;-70
2022/11/07 12:10:48;;;;;;;18.48;8.13;;;13.70;99.90;;;;;;5020104;28;20071;-70
2022/11/07 12:13:22;;;;;;;28.60;9.00;;;13.70;99.90;;;;;;5020428;28;20363;-71
2022/11/07 12:16:06;;;;;;;16.83;8.13;;;13.70;99.90;;;;;;5036709;28;20486;-70
2022/11/07 12:18:52;;;;;;;19.95;7.20;;;13.80;99.90;;;;;;5020066;28;20071;-70
2022/11/07 12:21:34;;;;;;;18.17;6.90;;;13.80;99.90;;;;;;5036782;28;20140;-70
2022/11/07 12:24:21;;;;;;;11.63;4.95;;;13.90;99.90;;;;;;5036749;28;20041;-70
2022/11/07 12:27:01;;;;;;;14.38;6.13;;;14.10;99.90;;;;;;5036376;28;20091;-70
2022/11/07 12:30:01;;;;;;;13.73;7.18;;;14.20;99.90;;;;;;5036285;28;20041;-70
2022/11/07 12:32:48;;;;;;;16.83;6.97;;;14.30;99.90;;;;;;5036440;28;20182;-70
2022/11/07 12:35:33;;;;;;;18.15;6.68;;;14.30;99.90;;;;;;5033138;28;20455;-70
2022/11/07 12:38:14;;;;;;;13.90;4.60;;;14.40;99.90;;;;;;5033111;28;20050;-71
2022/11/07 12:40:58;;;;;;;13.70;5.45;;;14.40;99.90;;;;;;5016175;28;20041;-71
2022/11/07 12:43:58;;;;;;;17.58;5.25;;;14.50;99.90;;;;;;5032700;28;20061;-70
2022/11/07 12:46:29;;;;;;;16.88;5.95;;;14.40;99.90;;;;;;5016661;28;20061;-70
2022/11/07 12:49:08;;;;;;;11.27;3.92;;;14.50;99.90;;;;;;5032649;28;20045;-71
2022/11/07 12:51:43;;;;;;;11.70;4.35;;;14.50;99.90;;;;;;5029766;28;20045;-71
2022/11/07 12:54:12;;;;;;;9.77;3.40;;;14.50;99.90;;;;;;5013720;28;20046;-71
2022/11/07 12:56:38;;;;;;;7.97;3.40;;;14.60;99.90;;;;;;5029987;28;20057;-70
2022/11/07 12:59:21;;;;;;;7.88;3.90;;;13.70;99.90;;;;;;5029866;28;20858;-71
2022/11/07 13:02:08;;;;;;;6.53;3.10;;;14.80;99.90;;;;;;5030044;28;20072;-71
2022/11/07 13:04:56;;;;;;;9.77;3.17;;;14.90;99.90;;;;;;5029382;28;20056;-70
2022/11/07 13:07:35;;;;;;;9.60;3.60;;;14.80;99.90;;;;;;5030047;28;20482;-71